createdAt,value
2018-06-11T00:01:37.340Z,21.50
2018-06-11T00:04:06.724Z,21.50
2018-06-11T00:06:36.211Z,21.50
2018-06-11T00:09:07.955Z,21.40
2018-06-11T00:11:38.234Z,21.40
2018-06-11T00:14:07.724Z,21.30
2018-06-11T00:16:38.006Z,21.20
2018-06-11T00:19:07.442Z,21.20
2018-06-11T00:21:36.754Z,21.10
2018-06-11T00:24:06.121Z,21.00
2018-06-11T00:26:35.524Z,20.90
2018-06-11T00:29:05.037Z,20.90
2018-06-11T00:31:35.423Z,20.90
2018-06-11T00:34:04.923Z,20.90
2018-06-11T00:36:35.267Z,20.80
2018-06-11T00:39:07.494Z,20.80
2018-06-11T00:41:36.930Z,20.70
2018-06-11T00:44:07.643Z,20.70
2018-06-11T00:46:36.975Z,20.70
2018-06-11T00:49:06.494Z,20.60
2018-06-11T00:51:35.830Z,20.60
2018-06-11T00:54:05.192Z,20.60
2018-06-11T00:56:35.515Z,20.50
2018-06-11T00:59:04.830Z,20.50
2018-06-11T01:01:34.178Z,20.50
2018-06-11T01:04:03.579Z,20.50
2018-06-11T01:06:33.055Z,20.40
2018-06-11T01:09:02.595Z,20.40
2018-06-11T01:11:32.758Z,20.40
2018-06-11T01:14:02.244Z,20.30
2018-06-11T01:16:31.591Z,20.30
2018-06-11T01:19:01.098Z,20.30
2018-06-11T01:21:30.645Z,20.20
2018-06-11T01:24:00.151Z,20.20
2018-06-11T01:26:29.646Z,20.10
2018-06-11T01:28:59.166Z,20.00
2018-06-11T01:31:28.514Z,20.00
2018-06-11T01:33:58.039Z,19.90
2018-06-11T01:36:27.430Z,20.00
2018-06-11T01:38:57.874Z,19.90
2018-06-11T01:41:27.361Z,19.90
2018-06-11T01:43:56.750Z,19.90
2018-06-11T01:46:26.094Z,19.90
2018-06-11T01:48:55.453Z,19.90
2018-06-11T01:51:24.978Z,19.90
2018-06-11T01:53:54.484Z,19.90
2018-06-11T01:56:23.890Z,19.90
2018-06-11T01:58:53.423Z,19.80
2018-06-11T02:01:22.911Z,19.90
2018-06-11T02:03:52.356Z,19.80
2018-06-11T02:06:22.763Z,19.80
2018-06-11T02:08:52.273Z,19.80
2018-06-11T02:11:21.769Z,19.70
2018-06-11T02:13:51.318Z,19.70
2018-06-11T02:16:20.787Z,19.60
2018-06-11T02:18:50.314Z,19.60
2018-06-11T02:21:19.798Z,19.50
2018-06-11T02:23:49.338Z,19.60
2018-06-11T02:26:18.762Z,19.60
2018-06-11T02:31:17.455Z,19.50
2018-06-11T02:33:46.958Z,19.50
2018-06-11T02:36:16.510Z,19.50
2018-06-11T02:38:45.943Z,19.60
2018-06-11T02:41:15.495Z,19.60
2018-06-11T02:43:44.871Z,19.60
2018-06-11T02:46:14.367Z,19.60
2018-06-11T02:48:43.855Z,19.60
2018-06-11T02:51:13.410Z,19.70
2018-06-11T02:53:42.774Z,19.60
2018-06-11T02:56:13.773Z,19.70
2018-06-11T03:01:12.407Z,19.70
2018-06-11T03:03:41.979Z,19.60
2018-06-11T03:06:11.396Z,19.60
2018-06-11T03:08:40.933Z,19.60
2018-06-11T03:11:10.583Z,19.50
2018-06-11T03:13:39.931Z,19.40
2018-06-11T03:16:09.533Z,19.40
2018-06-11T03:18:39.014Z,19.40
2018-06-11T03:21:08.562Z,19.50
2018-06-11T03:28:45.019Z,19.60
2018-06-11T03:31:14.531Z,19.70
2018-06-11T03:33:43.858Z,19.60
2018-06-11T03:36:13.393Z,19.60
2018-06-11T03:38:42.727Z,19.70
2018-06-11T03:41:12.106Z,19.70
2018-06-11T03:43:41.590Z,19.80
2018-06-11T03:46:10.919Z,19.90
2018-06-11T03:48:40.518Z,19.90
2018-06-11T03:51:09.991Z,19.90
2018-06-11T03:53:39.413Z,20.00
2018-06-11T03:56:10.654Z,20.00
2018-06-11T03:58:40.082Z,20.10
2018-06-11T04:01:09.594Z,20.10
2018-06-11T04:03:39.007Z,20.00
2018-06-11T04:06:08.337Z,19.90
2018-06-11T04:08:37.699Z,19.90
2018-06-11T04:11:07.277Z,19.90
2018-06-11T04:13:36.986Z,19.90
2018-06-11T04:16:06.364Z,19.90
2018-06-11T04:18:35.847Z,19.90
2018-06-11T04:21:05.360Z,19.90
2018-06-11T04:23:35.947Z,19.90
2018-06-11T04:26:05.435Z,19.80
2018-06-11T04:28:35.796Z,19.90
2018-06-11T04:31:05.142Z,19.90
2018-06-11T04:33:34.523Z,20.00
2018-06-11T04:36:03.908Z,20.00
2018-06-11T04:38:33.326Z,20.00
2018-06-11T04:41:02.643Z,20.00
2018-06-11T04:43:31.986Z,19.90
2018-06-11T04:46:01.454Z,19.90
2018-06-11T04:48:30.822Z,19.90
2018-06-11T04:51:00.194Z,19.90
2018-06-11T04:53:29.810Z,20.00
2018-06-11T04:55:59.337Z,20.00
2018-06-11T04:58:28.864Z,19.90
2018-06-11T05:00:58.258Z,19.90
2018-06-11T05:03:27.642Z,19.80
2018-06-11T05:05:57.026Z,19.80
2018-06-11T05:08:26.352Z,19.80
2018-06-11T05:10:55.730Z,19.70
2018-06-11T05:13:26.727Z,19.70
2018-06-11T05:15:56.179Z,19.80
2018-06-11T05:18:25.696Z,19.90
2018-06-11T05:20:55.192Z,20.00
2018-06-11T05:23:24.552Z,20.00
2018-06-11T05:25:53.934Z,20.10
2018-06-11T05:28:23.318Z,20.20
2018-06-11T05:30:52.594Z,20.30
2018-06-11T05:33:21.948Z,20.30
2018-06-11T05:35:51.422Z,20.40
2018-06-11T05:38:20.894Z,20.30
2018-06-11T05:43:54.664Z,20.30
2018-06-11T05:46:23.994Z,20.30
2018-06-11T05:48:53.391Z,20.30
2018-06-11T05:51:22.674Z,20.30
2018-06-11T05:53:51.978Z,20.40
2018-06-11T05:56:21.282Z,20.50
2018-06-11T05:58:50.762Z,20.40
2018-06-11T06:01:20.175Z,20.50
2018-06-11T06:03:49.595Z,20.60
2018-06-11T06:06:19.066Z,20.50
2018-06-11T06:08:48.437Z,20.50
2018-06-11T06:13:46.632Z,20.60
2018-06-11T06:16:15.958Z,20.60
2018-06-11T06:18:45.263Z,20.70
2018-06-11T06:21:14.587Z,20.70
2018-06-11T06:23:43.928Z,20.80
2018-06-11T06:26:13.230Z,20.80
2018-06-11T06:28:42.554Z,20.90
2018-06-11T06:31:12.700Z,21.00
2018-06-11T06:38:00.783Z,21.00
2018-06-11T06:40:30.311Z,21.00
2018-06-11T06:42:59.766Z,21.10
2018-06-11T06:45:29.280Z,21.10
2018-06-11T06:47:58.626Z,21.10
2018-06-11T06:50:27.964Z,21.10
2018-06-11T06:52:57.302Z,21.20
2018-06-11T06:55:26.746Z,21.20
2018-06-11T06:57:56.110Z,21.10
2018-06-11T07:00:25.461Z,21.10
2018-06-11T07:02:54.822Z,21.10
2018-06-11T07:05:24.151Z,21.20
2018-06-11T07:07:53.508Z,21.10
2018-06-11T07:12:51.691Z,20.80
2018-06-11T07:15:21.958Z,20.70
2018-06-11T07:17:51.450Z,20.70
2018-06-11T07:20:20.776Z,20.90
2018-06-11T07:22:50.115Z,21.40
2018-06-11T07:25:19.518Z,21.90
2018-06-11T07:27:48.826Z,22.60
2018-06-11T07:30:18.126Z,23.50
2018-06-11T07:32:47.434Z,24.30
2018-06-11T07:35:16.783Z,25.00
2018-06-11T07:37:46.092Z,24.90
2018-06-11T07:40:15.472Z,24.90
2018-06-11T07:42:45.009Z,24.70
2018-06-11T07:45:14.490Z,24.50
2018-06-11T07:47:43.797Z,24.30
2018-06-11T07:50:13.130Z,24.20
2018-06-11T07:52:42.470Z,24.20
2018-06-11T07:55:11.815Z,23.90
2018-06-11T07:57:41.315Z,23.80
2018-06-11T08:00:10.696Z,23.60
2018-06-11T08:02:40.199Z,23.40
2018-06-11T08:05:10.798Z,23.20
2018-06-11T08:07:40.112Z,23.10
2018-06-11T08:10:09.394Z,23.10
2018-06-11T08:12:38.838Z,22.90
2018-06-11T08:15:08.159Z,22.80
2018-06-11T08:17:37.654Z,22.80
2018-06-11T08:20:07.056Z,22.80
2018-06-11T08:22:36.574Z,22.70
2018-06-11T08:25:06.050Z,22.60
2018-06-11T08:27:36.235Z,22.50
2018-06-11T08:30:05.642Z,22.50
2018-06-11T08:36:01.088Z,22.60
2018-06-11T08:38:30.458Z,22.80
2018-06-11T08:40:59.983Z,22.60
2018-06-11T08:43:29.495Z,22.60
2018-06-11T08:48:27.692Z,22.60
2018-06-11T08:50:57.002Z,22.50
2018-06-11T08:55:55.429Z,22.70
2018-06-11T08:58:24.968Z,22.70
2018-06-11T09:00:54.403Z,22.50
2018-06-11T09:03:23.842Z,22.40
2018-06-11T09:05:53.335Z,22.40
2018-06-11T09:08:22.630Z,22.50
2018-06-11T09:10:51.949Z,22.50
2018-06-11T09:13:21.230Z,22.60
2018-06-11T09:15:50.546Z,22.80
2018-06-11T09:18:20.985Z,22.90
2018-06-11T09:20:50.174Z,22.90
2018-06-11T09:23:19.678Z,23.00
2018-06-11T09:25:49.155Z,23.20
2018-06-11T09:28:18.554Z,23.30
2018-06-11T09:30:47.858Z,23.40
2018-06-11T09:33:17.150Z,23.40
2018-06-11T09:35:46.662Z,23.40
2018-06-11T09:38:16.101Z,23.50
2018-06-11T09:43:14.384Z,23.80
2018-06-11T09:45:44.808Z,23.80
2018-06-11T09:48:14.078Z,23.80
2018-06-11T09:50:44.428Z,23.80
2018-06-11T09:53:13.726Z,23.90
2018-06-11T09:55:43.227Z,23.90
2018-06-11T09:58:12.575Z,23.80
2018-06-11T10:00:41.914Z,23.60
2018-06-11T10:03:11.420Z,23.50
2018-06-11T10:05:41.009Z,23.30
2018-06-11T10:08:10.374Z,23.20
2018-06-11T10:10:39.689Z,23.10
2018-06-11T10:13:09.918Z,23.10
2018-06-11T10:15:39.298Z,23.00
2018-06-11T10:18:08.687Z,22.90
2018-06-11T10:20:38.008Z,22.90
2018-06-11T10:23:07.314Z,22.80
2018-06-11T10:25:36.785Z,22.80
2018-06-11T10:28:06.179Z,22.70
2018-06-11T10:30:36.430Z,22.60
2018-06-11T10:33:05.770Z,22.50
2018-06-11T10:35:35.141Z,22.50
2018-06-11T10:38:04.519Z,22.50
2018-06-11T10:40:33.811Z,22.60
2018-06-11T10:43:03.314Z,22.40
2018-06-11T10:45:32.783Z,22.40
2018-06-11T10:48:02.079Z,22.50
2018-06-11T10:50:31.405Z,22.40
2018-06-11T10:53:00.755Z,22.40
2018-06-11T10:55:30.098Z,22.40
2018-06-11T10:57:59.567Z,22.40
2018-06-11T11:00:28.887Z,22.30
2018-06-11T11:05:28.983Z,22.20
2018-06-11T11:07:58.434Z,22.30
2018-06-11T11:10:27.812Z,22.30
2018-06-11T11:12:57.122Z,22.40
2018-06-11T11:15:26.427Z,22.40
2018-06-11T11:17:55.886Z,22.60
2018-06-11T11:20:25.212Z,22.70
2018-06-11T11:22:54.678Z,22.90
2018-06-11T11:25:24.176Z,23.00
2018-06-11T11:27:53.458Z,22.90
2018-06-11T11:30:22.858Z,22.90
2018-06-11T11:35:21.044Z,22.90
2018-06-11T11:37:50.394Z,22.90
2018-06-11T11:40:19.705Z,23.00
2018-06-11T11:42:49.014Z,22.90
2018-06-11T11:45:18.342Z,22.90
2018-06-11T11:47:47.614Z,23.00
2018-06-11T11:50:16.911Z,23.10
2018-06-11T11:52:47.836Z,23.00
2018-06-11T11:55:17.182Z,22.80
2018-06-11T11:57:46.610Z,22.70
2018-06-11T12:00:15.963Z,22.80
2018-06-11T12:02:45.386Z,22.80
2018-06-11T12:05:14.699Z,22.80
2018-06-11T12:07:44.012Z,22.70
2018-06-11T12:10:13.462Z,22.60
2018-06-11T12:15:11.733Z,22.70
2018-06-11T12:17:41.198Z,22.70
2018-06-11T12:20:10.482Z,22.70
2018-06-11T12:22:39.990Z,22.40
2018-06-11T12:25:09.600Z,22.30
2018-06-11T12:27:38.927Z,22.20
2018-06-11T12:30:08.243Z,22.40
2018-06-11T12:32:37.533Z,22.30
2018-06-11T12:35:06.874Z,22.40
2018-06-11T12:37:36.705Z,22.40
2018-06-11T12:40:06.067Z,22.50
2018-06-11T12:52:13.786Z,22.50
2018-06-11T12:54:43.072Z,22.50
2018-06-11T12:57:12.401Z,22.30
2018-06-11T12:59:41.862Z,22.30
2018-06-11T13:02:11.315Z,22.40
2018-06-11T13:04:40.667Z,22.40
2018-06-11T13:07:10.123Z,22.30
2018-06-11T13:09:39.400Z,22.30
2018-06-11T13:12:08.726Z,22.30
2018-06-11T13:14:38.018Z,22.30
2018-06-11T13:17:09.266Z,22.40
2018-06-11T13:19:38.774Z,22.20
2018-06-11T13:22:08.307Z,22.00
2018-06-11T13:24:37.710Z,21.90
2018-06-11T13:27:07.082Z,21.90
2018-06-11T13:29:36.918Z,21.80
2018-06-11T13:32:06.231Z,21.80
2018-06-11T13:34:35.514Z,21.80
2018-06-11T13:37:04.897Z,21.80
2018-06-11T13:39:34.374Z,21.90
2018-06-11T13:42:03.991Z,22.00
2018-06-11T13:47:03.806Z,22.00
2018-06-11T13:49:33.328Z,22.10
2018-06-11T13:52:02.739Z,22.30
2018-06-11T13:54:32.042Z,22.30
2018-06-11T13:57:01.553Z,22.30
2018-06-11T13:59:30.902Z,22.50
2018-06-11T14:02:00.398Z,22.50
2018-06-11T14:04:29.934Z,22.50
2018-06-11T14:06:59.235Z,22.50
2018-06-11T14:09:28.510Z,22.50
2018-06-11T14:11:57.832Z,22.30
2018-06-11T14:14:27.187Z,21.90
2018-06-11T14:16:56.587Z,21.80
2018-06-11T14:19:25.922Z,21.80
2018-06-11T14:21:55.511Z,21.80
2018-06-11T14:24:25.004Z,21.70
2018-06-11T14:26:54.358Z,21.70
2018-06-11T14:29:23.703Z,21.70
2018-06-11T14:31:52.998Z,21.70
2018-06-11T14:34:24.031Z,21.60
2018-06-11T14:36:53.356Z,21.60
2018-06-11T14:39:22.821Z,21.60
2018-06-11T14:41:52.355Z,21.60
2018-06-11T14:44:21.831Z,21.70
2018-06-11T14:46:51.307Z,21.70
2018-06-11T14:49:20.655Z,21.80
2018-06-11T14:51:50.039Z,21.80
2018-06-11T14:54:19.383Z,21.80
2018-06-11T14:56:48.742Z,21.90
2018-06-11T14:59:18.134Z,21.90
2018-06-11T15:04:17.462Z,21.80
2018-06-11T15:09:15.790Z,21.40
2018-06-11T15:11:45.107Z,21.40
2018-06-11T15:14:14.598Z,21.40
2018-06-11T15:16:44.082Z,21.40
2018-06-11T15:19:13.461Z,21.60
2018-06-11T15:24:13.007Z,21.60
2018-06-11T15:26:42.310Z,21.50
2018-06-11T15:29:11.653Z,21.30
2018-06-11T15:31:41.054Z,21.30
2018-06-11T15:34:10.374Z,21.30
2018-06-11T15:36:39.831Z,21.20
2018-06-11T15:39:09.307Z,21.00
2018-06-11T15:41:38.634Z,20.80
2018-06-11T15:44:08.143Z,20.70
2018-06-11T15:46:44.405Z,20.60
2018-06-11T15:49:13.794Z,20.60
2018-06-11T15:51:43.145Z,20.50
2018-06-11T15:54:12.499Z,20.50
2018-06-11T15:56:42.801Z,20.60
2018-06-11T15:59:12.371Z,20.60
2018-06-11T16:01:41.868Z,20.60
2018-06-11T16:04:11.382Z,20.50
2018-06-11T16:06:40.712Z,20.40
2018-06-11T16:09:10.155Z,20.50
2018-06-11T16:11:39.471Z,20.60
2018-06-11T16:14:08.806Z,20.50
2018-06-11T16:16:38.354Z,20.50
2018-06-11T16:19:07.893Z,20.50
2018-06-11T16:21:37.411Z,20.50
2018-06-11T16:24:08.347Z,20.40
2018-06-11T16:26:37.884Z,20.20
2018-06-11T16:29:07.216Z,20.20
2018-06-11T16:31:37.254Z,20.10
2018-06-11T16:34:06.650Z,20.10
2018-06-11T16:36:37.008Z,20.10
2018-06-11T16:39:08.432Z,20.00
2018-06-11T16:41:37.771Z,19.90
2018-06-11T16:44:07.350Z,19.80
2018-06-11T16:46:37.262Z,19.80
2018-06-11T16:49:06.620Z,20.00
2018-06-11T16:51:35.938Z,19.90
2018-06-11T16:54:05.493Z,19.90
2018-06-11T16:56:35.776Z,20.00
2018-06-11T16:59:05.315Z,19.90
2018-06-11T17:01:34.762Z,19.80
2018-06-11T17:04:04.194Z,19.70
2018-06-11T17:06:33.562Z,19.80
2018-06-11T17:09:02.934Z,19.80
2018-06-11T17:11:32.285Z,19.70
2018-06-11T17:14:01.589Z,19.50
2018-06-11T17:16:31.123Z,19.30
2018-06-11T17:19:00.519Z,19.30
2018-06-11T17:21:30.123Z,19.20
2018-06-11T17:23:59.618Z,19.20
2018-06-11T17:26:29.179Z,19.20
2018-06-11T17:28:58.474Z,19.20
2018-06-11T17:31:27.843Z,19.10
2018-06-11T17:33:57.124Z,19.10
2018-06-11T17:36:26.455Z,19.20
2018-06-11T17:38:55.978Z,19.10
2018-06-11T17:41:25.486Z,19.10
2018-06-11T17:43:55.002Z,19.00
2018-06-11T17:46:25.751Z,19.00
2018-06-11T17:48:55.125Z,18.90
2018-06-11T17:51:24.435Z,18.90
2018-06-11T17:53:53.770Z,18.80
2018-06-11T17:56:23.200Z,18.60
2018-06-11T17:58:52.521Z,18.60
2018-06-11T18:01:21.914Z,18.60
2018-06-11T18:03:51.243Z,18.40
2018-06-11T18:06:20.634Z,18.30
2018-06-11T18:08:49.978Z,18.30
2018-06-11T18:11:19.319Z,18.30
2018-06-11T18:13:48.763Z,18.20
2018-06-11T18:16:18.084Z,18.20
2018-06-11T18:18:47.531Z,18.10
2018-06-11T18:21:16.820Z,18.10
2018-06-11T18:23:46.298Z,17.90
2018-06-11T18:26:15.662Z,17.80
2018-06-11T18:28:45.131Z,17.70
2018-06-11T18:31:14.498Z,17.60
2018-06-11T18:33:43.884Z,17.50
2018-06-11T18:36:13.223Z,17.50
2018-06-11T18:38:42.551Z,17.50
2018-06-11T18:41:12.822Z,17.40
2018-06-11T18:43:42.161Z,17.40
2018-06-11T18:46:12.437Z,17.40
2018-06-11T18:48:41.756Z,17.30
2018-06-11T18:51:11.111Z,17.30
2018-06-11T18:53:40.439Z,17.30
2018-06-11T18:56:09.771Z,17.30
2018-06-11T18:58:39.299Z,17.30
2018-06-11T19:01:08.829Z,17.30
2018-06-11T19:03:38.231Z,17.20
2018-06-11T19:06:07.771Z,17.20
2018-06-11T19:08:37.438Z,17.20
2018-06-11T19:11:07.019Z,17.20
2018-06-11T19:13:37.315Z,17.30
2018-06-11T19:16:06.891Z,17.10
2018-06-11T19:18:37.352Z,17.20
2018-06-11T19:21:06.952Z,17.00
2018-06-11T19:23:36.362Z,17.00
2018-06-11T19:26:06.430Z,16.90
2018-06-11T19:28:36.500Z,17.00
2018-06-11T19:31:05.823Z,16.90
2018-06-11T19:33:35.192Z,16.90
2018-06-11T19:36:05.840Z,17.00
2018-06-11T19:38:35.282Z,17.00
2018-06-11T19:41:04.643Z,16.90
2018-06-11T19:43:34.079Z,16.80
2018-06-11T19:46:03.627Z,16.80
2018-06-11T19:48:32.938Z,16.90
2018-06-11T19:51:02.452Z,16.90
2018-06-11T19:53:31.726Z,16.90
2018-06-11T19:56:01.083Z,16.90
2018-06-11T19:58:30.428Z,16.80
2018-06-11T20:00:59.794Z,16.80
2018-06-11T20:03:30.870Z,16.70
2018-06-11T20:06:00.278Z,16.60
2018-06-11T20:08:29.622Z,16.60
2018-06-11T20:11:00.002Z,16.50
2018-06-11T20:13:29.478Z,16.50
2018-06-11T20:15:58.805Z,16.60
2018-06-11T20:18:28.219Z,16.60
2018-06-11T20:20:57.646Z,16.60
2018-06-11T20:23:26.951Z,16.60
2018-06-11T20:25:56.407Z,16.60
2018-06-11T20:28:25.730Z,16.60
2018-06-11T20:35:05.739Z,16.60
2018-06-11T20:37:35.162Z,16.60
2018-06-11T20:40:04.964Z,16.60
2018-06-11T20:42:34.414Z,16.50
2018-06-11T20:45:03.739Z,16.50
2018-06-11T20:47:33.080Z,16.50
2018-06-11T20:50:02.374Z,16.50
2018-06-11T20:52:31.725Z,16.50
2018-06-11T20:55:01.092Z,16.50
2018-06-11T20:57:30.386Z,16.50
2018-06-11T20:59:59.903Z,16.50
2018-06-11T21:02:29.358Z,16.50
2018-06-11T21:04:58.714Z,16.60
2018-06-11T21:07:29.167Z,16.60
2018-06-11T21:09:58.458Z,16.50
2018-06-11T21:12:27.792Z,16.50
2018-06-11T21:14:57.151Z,16.60
2018-06-11T21:17:26.518Z,16.70
2018-06-11T21:19:56.038Z,16.70
2018-06-11T21:22:25.507Z,16.60
2018-06-11T21:24:54.854Z,16.60
2018-06-11T21:27:24.363Z,16.60
2018-06-11T21:29:53.639Z,16.60
2018-06-11T21:32:22.983Z,16.70
2018-06-11T21:34:52.246Z,16.70
2018-06-11T21:37:21.575Z,16.70
2018-06-11T21:39:51.071Z,16.60
2018-06-11T21:42:20.566Z,16.60
2018-06-11T21:44:50.063Z,16.60
2018-06-11T21:47:19.370Z,16.60
2018-06-11T21:49:48.664Z,16.50
2018-06-11T21:52:17.939Z,16.50
2018-06-11T21:54:47.270Z,16.50
2018-06-11T22:00:01.615Z,16.50
2018-06-11T22:02:31.092Z,16.50
2018-06-11T22:05:00.373Z,16.50
2018-06-11T22:07:29.680Z,16.40
2018-06-11T22:09:59.470Z,16.50
2018-06-11T22:25:45.838Z,16.40
2018-06-11T22:28:15.138Z,16.40
2018-06-11T22:30:45.881Z,16.00
2018-06-11T22:33:15.201Z,16.00
2018-06-11T22:35:44.556Z,16.10
2018-06-11T22:38:13.988Z,16.10
2018-06-11T22:40:43.484Z,16.10
2018-06-11T22:43:12.844Z,16.20
2018-06-11T22:45:42.300Z,16.20
2018-06-11T22:48:11.644Z,16.10
2018-06-11T22:50:41.021Z,16.20
2018-06-11T22:53:10.370Z,16.20
2018-06-11T22:55:39.709Z,16.20
2018-06-11T22:58:10.804Z,16.30
2018-06-11T23:00:40.329Z,16.30
2018-06-11T23:03:09.908Z,16.40
2018-06-11T23:05:39.245Z,16.40
2018-06-11T23:08:08.595Z,16.30
2018-06-11T23:10:37.922Z,16.40
2018-06-11T23:13:07.423Z,16.40
2018-06-11T23:15:37.690Z,16.40
2018-06-11T23:18:07.242Z,16.40
2018-06-11T23:20:37.626Z,16.40
2018-06-11T23:23:06.958Z,16.50
2018-06-11T23:25:37.937Z,16.50
2018-06-11T23:28:07.219Z,16.40
2018-06-11T23:33:06.318Z,16.40
2018-06-11T23:35:35.686Z,16.40
2018-06-11T23:38:05.129Z,16.50
2018-06-11T23:40:34.490Z,16.50
2018-06-11T23:43:03.846Z,16.50
2018-06-11T23:45:33.298Z,16.50
2018-06-11T23:48:02.606Z,16.50
2018-06-11T23:50:33.417Z,16.60
2018-06-11T23:57:02.615Z,16.60
2018-06-11T23:59:32.063Z,16.60
